createdAt,value
2023-01-21T00:02:23.720Z,27.40
2023-01-21T00:05:30.572Z,27.40
2023-01-21T00:08:37.398Z,29.50
2023-01-21T00:11:44.292Z,27.70
2023-01-21T00:14:51.506Z,28.80
2023-01-21T00:17:58.574Z,26.90
2023-01-21T00:21:05.856Z,26.10
2023-01-21T00:24:13.455Z,27.10
2023-01-21T00:27:20.736Z,25.70
2023-01-21T00:30:27.985Z,28.70
2023-01-21T00:33:35.553Z,28.90
2023-01-21T00:36:42.710Z,27.70
2023-01-21T00:39:49.826Z,28.70
2023-01-21T00:42:57.067Z,27.90
2023-01-21T00:46:03.889Z,27.10
2023-01-21T00:49:11.362Z,28.90
2023-01-21T00:52:18.816Z,27.10
2023-01-21T00:55:25.502Z,29.30
2023-01-21T00:58:32.998Z,28.60
2023-01-21T01:01:40.795Z,28.20
2023-01-21T01:04:47.623Z,29.80
2023-01-21T01:07:55.183Z,29.30
2023-01-21T01:11:06.893Z,32.10
2023-01-21T01:14:03.389Z,31.70
2023-01-21T01:17:10.663Z,31.60
2023-01-21T01:20:18.107Z,32.60
2023-01-21T01:23:25.494Z,33.10
2023-01-21T01:26:33.197Z,34.10
2023-01-21T01:29:40.231Z,32.90
2023-01-21T01:32:47.237Z,32.70
2023-01-21T01:35:54.124Z,34.30
2023-01-21T01:39:01.737Z,33.90
2023-01-21T01:42:08.823Z,33.70
2023-01-21T01:45:15.878Z,33.50
2023-01-21T01:48:23.589Z,33.90
2023-01-21T01:51:30.936Z,35.00
2023-01-21T01:54:37.783Z,32.60
2023-01-21T01:57:45.225Z,32.20
2023-01-21T02:00:51.992Z,33.00
2023-01-21T02:03:59.307Z,32.50
2023-01-21T02:07:06.677Z,31.90
2023-01-21T02:10:13.509Z,32.10
2023-01-21T02:13:20.810Z,32.30
2023-01-21T02:16:28.238Z,32.90
2023-01-21T02:19:34.991Z,32.80
2023-01-21T02:22:42.539Z,33.10
2023-01-21T02:25:50.049Z,32.80
2023-01-21T02:28:56.869Z,31.80
2023-01-21T02:32:04.473Z,32.30
2023-01-21T02:35:11.582Z,33.80
2023-01-21T02:38:18.806Z,33.10
2023-01-21T02:41:26.469Z,31.20
2023-01-21T02:44:33.475Z,31.40
2023-01-21T02:47:40.491Z,32.50
2023-01-21T02:50:47.166Z,32.80
2023-01-21T02:53:54.580Z,30.70
2023-01-21T02:57:02.141Z,31.80
2023-01-21T03:00:08.939Z,31.10
2023-01-21T03:03:16.702Z,29.40
2023-01-21T03:06:23.906Z,30.60
2023-01-21T03:09:31.059Z,29.70
2023-01-21T03:12:38.906Z,30.20
2023-01-21T03:15:45.783Z,30.30
2023-01-21T03:18:53.584Z,28.80
2023-01-21T03:22:00.995Z,30.70
2023-01-21T03:25:07.715Z,29.10
2023-01-21T03:28:15.157Z,29.30
2023-01-21T03:31:22.497Z,28.30
2023-01-21T03:34:29.278Z,22.30
2023-01-21T03:37:36.828Z,24.10
2023-01-21T03:40:44.158Z,23.60
2023-01-21T03:43:51.428Z,21.90
2023-01-21T03:46:58.798Z,23.00
2023-01-21T03:50:05.871Z,20.90
2023-01-21T03:53:13.007Z,19.70
2023-01-21T03:56:20.272Z,20.30
2023-01-21T03:59:27.867Z,20.70
2023-01-21T04:02:35.059Z,21.00
2023-01-21T04:05:42.230Z,19.50
2023-01-21T04:08:49.620Z,19.80
2023-01-21T04:11:56.701Z,19.30
2023-01-21T04:15:05.539Z,18.10
2023-01-21T04:18:13.184Z,20.50
2023-01-21T04:21:20.196Z,18.90
2023-01-21T04:24:27.550Z,19.10
2023-01-21T04:27:34.935Z,19.30
2023-01-21T04:30:41.778Z,20.00
2023-01-21T04:33:49.325Z,18.50
2023-01-21T04:36:56.795Z,19.20
2023-01-21T04:40:03.468Z,19.40
2023-01-21T04:43:11.127Z,19.20
2023-01-21T04:46:18.571Z,18.90
2023-01-21T04:49:25.359Z,18.60
2023-01-21T04:52:32.636Z,17.40
2023-01-21T04:55:39.727Z,18.60
2023-01-21T04:58:46.941Z,18.30
2023-01-21T05:01:54.521Z,19.20
2023-01-21T05:05:01.696Z,19.60
2023-01-21T05:08:08.807Z,19.90
2023-01-21T05:11:16.673Z,20.80
2023-01-21T05:14:23.753Z,21.10
2023-01-21T05:17:31.015Z,21.90
2023-01-21T05:20:37.988Z,21.50
2023-01-21T05:23:45.467Z,23.80
2023-01-21T05:26:52.933Z,23.30
2023-01-21T05:29:59.995Z,22.00
2023-01-21T05:33:07.174Z,21.20
2023-01-21T05:36:13.874Z,18.90
2023-01-21T05:39:21.430Z,19.40
2023-01-21T05:42:28.797Z,15.50
2023-01-21T05:45:35.588Z,13.30
2023-01-21T05:48:42.788Z,13.20
2023-01-21T05:51:50.123Z,10.30
2023-01-21T05:55:02.227Z,11.90
2023-01-21T05:57:59.328Z,11.50
2023-01-21T06:01:06.391Z,11.70
2023-01-21T06:04:13.412Z,11.10
2023-01-21T06:07:20.579Z,11.30
2023-01-21T06:10:28.141Z,10.20
2023-01-21T06:13:35.388Z,11.20
2023-01-21T06:16:42.532Z,10.70
2023-01-21T06:19:50.104Z,10.90
2023-01-21T06:22:57.284Z,11.20
2023-01-21T06:26:04.346Z,11.10
2023-01-21T06:29:11.654Z,12.60
2023-01-21T06:32:18.400Z,12.60
2023-01-21T06:35:25.555Z,12.80
2023-01-21T06:38:33.132Z,11.40
2023-01-21T06:41:40.035Z,13.00
2023-01-21T06:44:47.506Z,13.10
2023-01-21T06:47:55.107Z,11.70
2023-01-21T06:51:01.892Z,12.90
2023-01-21T06:54:09.245Z,12.80
2023-01-21T06:57:16.654Z,13.90
2023-01-21T07:00:24.152Z,12.00
2023-01-21T07:03:30.978Z,11.60
2023-01-21T07:06:38.137Z,12.40
2023-01-21T07:09:45.541Z,12.30
2023-01-21T07:12:52.395Z,12.80
2023-01-21T07:15:59.793Z,12.60
2023-01-21T07:19:07.252Z,12.30
2023-01-21T07:22:14.095Z,12.20
2023-01-21T07:25:21.575Z,12.40
2023-01-21T07:28:28.423Z,12.50
2023-01-21T07:31:35.674Z,13.20
2023-01-21T07:34:42.718Z,12.40
2023-01-21T07:37:50.248Z,12.90
2023-01-21T07:40:57.365Z,12.40
2023-01-21T07:44:04.595Z,13.20
2023-01-21T07:47:12.095Z,12.40
2023-01-21T07:50:19.520Z,13.60
2023-01-21T07:53:26.818Z,11.50
2023-01-21T07:56:34.198Z,13.10
2023-01-21T07:59:41.313Z,12.30
2023-01-21T08:02:48.579Z,12.10
2023-01-21T08:05:55.700Z,11.40
2023-01-21T08:09:02.541Z,12.00
2023-01-21T08:12:10.157Z,11.50
2023-01-21T08:15:17.576Z,11.00
2023-01-21T08:18:24.593Z,10.70
2023-01-21T08:21:32.252Z,10.30
2023-01-21T08:24:39.550Z,10.20
2023-01-21T08:27:47.642Z,9.00
2023-01-21T08:30:55.608Z,9.10
2023-01-21T08:34:02.707Z,9.10
2023-01-21T08:37:09.811Z,8.20
2023-01-21T08:40:17.163Z,8.30
2023-01-21T08:43:24.985Z,9.10
2023-01-21T08:46:32.791Z,8.60
2023-01-21T08:49:39.973Z,8.50
2023-01-21T08:52:47.997Z,9.60
2023-01-21T08:55:54.923Z,8.70
2023-01-21T08:59:02.508Z,9.10
2023-01-21T09:02:10.120Z,10.80
2023-01-21T09:05:17.441Z,9.80
2023-01-21T09:08:25.036Z,10.70
2023-01-21T09:11:32.101Z,10.30
2023-01-21T09:14:39.416Z,11.00
2023-01-21T09:17:46.929Z,11.90
2023-01-21T09:20:54.064Z,11.60
2023-01-21T09:24:00.897Z,12.50
2023-01-21T09:27:08.398Z,12.10
2023-01-21T09:30:15.509Z,11.80
2023-01-21T09:33:22.511Z,12.90
2023-01-21T09:36:29.661Z,11.50
2023-01-21T09:39:37.109Z,12.80
2023-01-21T09:42:44.019Z,14.30
2023-01-21T09:45:51.310Z,14.30
2023-01-21T09:48:58.948Z,12.90
2023-01-21T09:52:05.732Z,12.80
2023-01-21T09:55:13.341Z,14.30
2023-01-21T09:58:20.470Z,14.30
2023-01-21T10:01:27.326Z,14.90
2023-01-21T10:04:34.623Z,14.90
2023-01-21T10:07:41.811Z,15.00
2023-01-21T10:10:48.852Z,13.60
2023-01-21T10:13:56.021Z,12.80
2023-01-21T10:17:02.977Z,14.10
2023-01-21T10:20:09.803Z,12.60
2023-01-21T10:23:16.795Z,14.40
2023-01-21T10:26:24.385Z,12.60
2023-01-21T10:29:31.525Z,12.90
2023-01-21T10:32:38.843Z,13.40
2023-01-21T10:35:46.564Z,14.90
2023-01-21T10:38:53.740Z,14.20
2023-01-21T10:42:01.029Z,12.70
2023-01-21T10:45:08.286Z,13.00
2023-01-21T10:48:15.106Z,14.00
2023-01-21T10:51:22.506Z,13.90
2023-01-21T10:54:30.286Z,14.00
2023-01-21T10:57:37.078Z,12.60
2023-01-21T11:00:44.608Z,14.50
2023-01-21T11:03:52.019Z,14.10
2023-01-21T11:06:58.819Z,13.00
2023-01-21T11:10:05.860Z,12.90
2023-01-21T11:13:13.188Z,12.80
2023-01-21T11:16:20.395Z,12.70
2023-01-21T11:19:27.877Z,11.10
2023-01-21T11:22:34.630Z,11.70
2023-01-21T11:25:42.297Z,13.00
2023-01-21T11:28:49.792Z,11.70
2023-01-21T11:31:56.577Z,12.60
2023-01-21T11:35:03.190Z,11.40
2023-01-21T11:38:10.143Z,11.10
2023-01-21T11:41:17.062Z,11.20
2023-01-21T11:44:24.598Z,10.10
2023-01-21T11:47:31.567Z,10.60
2023-01-21T11:50:38.341Z,10.10
2023-01-21T11:53:45.562Z,11.00
2023-01-21T11:56:52.615Z,10.80
2023-01-21T11:59:59.664Z,10.50
2023-01-21T12:03:06.425Z,11.00
2023-01-21T12:06:13.816Z,11.60
2023-01-21T12:09:20.758Z,11.30
2023-01-21T12:12:27.726Z,9.90
2023-01-21T12:15:34.834Z,10.90
2023-01-21T12:18:41.446Z,10.40
2023-01-21T12:21:48.896Z,10.50
2023-01-21T12:24:56.121Z,11.20
2023-01-21T12:28:02.780Z,10.40
2023-01-21T12:31:10.249Z,11.20
2023-01-21T12:34:17.729Z,10.00
2023-01-21T12:37:24.574Z,11.30
2023-01-21T12:40:32.034Z,10.90
2023-01-21T12:43:39.324Z,11.20
2023-01-21T12:46:46.244Z,10.60
2023-01-21T12:49:53.725Z,10.20
2023-01-21T12:53:00.832Z,10.40
2023-01-21T12:56:08.109Z,11.40
2023-01-21T12:59:15.385Z,10.30
2023-01-21T13:02:22.628Z,10.20
2023-01-21T13:05:29.966Z,10.00
2023-01-21T13:08:37.573Z,11.30
2023-01-21T13:11:44.600Z,9.20
2023-01-21T13:14:51.860Z,9.70
2023-01-21T13:17:59.351Z,10.20
2023-01-21T13:21:06.626Z,9.90
2023-01-21T13:24:13.961Z,10.00
2023-01-21T13:27:21.168Z,10.00
2023-01-21T13:30:28.734Z,9.90
2023-01-21T13:33:35.777Z,10.40
2023-01-21T13:36:43.231Z,10.10
2023-01-21T13:39:50.771Z,10.00
2023-01-21T13:42:57.439Z,9.10
2023-01-21T13:46:04.796Z,9.80
2023-01-21T13:49:12.488Z,10.50
2023-01-21T13:52:19.311Z,9.90
2023-01-21T13:55:26.967Z,9.80
2023-01-21T13:58:34.069Z,9.90
2023-01-21T14:01:41.267Z,10.50
2023-01-21T14:04:48.926Z,10.00
2023-01-21T14:07:56.223Z,10.40
2023-01-21T14:11:03.455Z,10.10
2023-01-21T14:14:11.128Z,11.40
2023-01-21T14:17:18.108Z,10.20
2023-01-21T14:20:25.315Z,9.90
2023-01-21T14:23:32.287Z,9.20
2023-01-21T14:26:39.815Z,9.50
2023-01-21T14:29:47.065Z,11.00
2023-01-21T14:32:54.049Z,10.40
2023-01-21T14:36:01.383Z,9.50
2023-01-21T14:39:08.349Z,9.90
2023-01-21T14:42:15.538Z,10.10
2023-01-21T14:45:23.086Z,9.50
2023-01-21T14:48:30.015Z,10.00
2023-01-21T14:51:37.436Z,9.80
2023-01-21T14:54:44.890Z,9.40
2023-01-21T14:57:51.841Z,9.40
2023-01-21T15:00:59.763Z,8.40
2023-01-21T15:04:07.194Z,9.10
2023-01-21T15:07:14.784Z,9.20
2023-01-21T15:10:21.920Z,10.80
2023-01-21T15:13:29.242Z,9.30
2023-01-21T15:16:36.715Z,9.20
2023-01-21T15:19:43.474Z,9.50
2023-01-21T15:22:50.431Z,9.30
2023-01-21T15:25:58.142Z,9.50
2023-01-21T15:29:04.941Z,9.10
2023-01-21T15:32:14.006Z,9.20
2023-01-21T15:35:22.125Z,8.90
2023-01-21T15:38:28.924Z,9.90
2023-01-21T15:41:36.347Z,9.40
2023-01-21T15:44:43.568Z,8.50
2023-01-21T15:47:50.864Z,9.20
2023-01-21T15:50:58.054Z,9.30
2023-01-21T15:54:05.288Z,9.40
2023-01-21T15:57:12.520Z,9.40
2023-01-21T16:00:19.948Z,10.90
2023-01-21T16:03:26.903Z,9.80
2023-01-21T16:06:34.152Z,9.50
2023-01-21T16:09:41.226Z,9.90
2023-01-21T16:12:48.524Z,11.30
2023-01-21T16:15:55.522Z,10.50
2023-01-21T16:19:02.611Z,10.40
2023-01-21T16:22:09.999Z,10.70
2023-01-21T16:25:17.349Z,10.70
2023-01-21T16:28:24.520Z,11.60
2023-01-21T16:31:32.134Z,11.40
2023-01-21T16:34:39.114Z,9.30
2023-01-21T16:37:46.829Z,11.70
2023-01-21T16:40:53.951Z,10.20
2023-01-21T16:44:01.124Z,10.70
2023-01-21T16:47:09.113Z,10.50
2023-01-21T16:50:16.734Z,10.40
2023-01-21T16:53:23.316Z,9.70
2023-01-21T16:56:30.452Z,10.80
2023-01-21T16:59:37.465Z,10.50
2023-01-21T17:02:44.353Z,11.30
2023-01-21T17:05:51.716Z,10.80
2023-01-21T17:08:58.652Z,10.40
2023-01-21T17:12:05.862Z,11.00
2023-01-21T17:15:12.810Z,10.40
2023-01-21T17:18:19.803Z,9.00
2023-01-21T17:21:26.669Z,9.70
2023-01-21T17:24:33.776Z,9.30
2023-01-21T17:27:40.701Z,9.60
2023-01-21T17:30:47.923Z,10.10
2023-01-21T17:33:55.032Z,9.30
2023-01-21T17:37:02.144Z,8.40
2023-01-21T17:40:09.403Z,9.90
2023-01-21T17:43:16.191Z,8.60
2023-01-21T17:46:23.643Z,8.70
2023-01-21T17:49:30.522Z,14.00
2023-01-21T17:52:37.602Z,10.60
2023-01-21T17:55:44.955Z,8.20
2023-01-21T17:58:51.660Z,7.20
2023-01-21T18:01:59.020Z,8.10
2023-01-21T18:05:06.315Z,7.60
2023-01-21T18:08:13.427Z,7.20
2023-01-21T18:11:20.361Z,7.40
2023-01-21T18:14:27.849Z,7.50
2023-01-21T18:17:34.429Z,6.70
2023-01-21T18:20:41.921Z,6.50
2023-01-21T18:23:49.109Z,8.50
2023-01-21T18:26:56.167Z,7.40
2023-01-21T18:30:03.429Z,6.80
2023-01-21T18:33:10.415Z,6.80
2023-01-21T18:36:17.995Z,7.30
2023-01-21T18:39:24.788Z,6.80
2023-01-21T18:42:32.340Z,6.50
2023-01-21T18:45:39.287Z,8.30
2023-01-21T18:48:46.021Z,6.20
2023-01-21T18:51:53.143Z,6.40
2023-01-21T18:55:00.413Z,6.90
2023-01-21T18:58:07.073Z,7.70
2023-01-21T19:01:23.008Z,7.00
2023-01-21T19:04:19.169Z,7.60
2023-01-21T19:07:25.846Z,7.90
2023-01-21T19:10:33.174Z,8.60
2023-01-21T19:13:40.551Z,7.20
2023-01-21T19:16:47.893Z,6.60
2023-01-21T19:19:54.948Z,6.10
2023-01-21T19:23:02.054Z,7.10
2023-01-21T19:26:09.190Z,6.20
2023-01-21T19:29:16.021Z,6.60
2023-01-21T19:32:22.926Z,7.10
2023-01-21T19:35:30.037Z,6.00
2023-01-21T19:38:37.391Z,5.60
2023-01-21T19:41:44.595Z,6.80
2023-01-21T19:44:51.616Z,6.60
2023-01-21T19:47:59.007Z,5.40
2023-01-21T19:51:06.032Z,7.90
2023-01-21T19:54:13.481Z,7.50
2023-01-21T19:57:20.531Z,6.60
2023-01-21T20:00:27.572Z,7.10
2023-01-21T20:03:34.152Z,7.40
2023-01-21T20:06:41.611Z,8.40
2023-01-21T20:09:48.802Z,7.80
2023-01-21T20:12:55.894Z,7.80
2023-01-21T20:16:03.224Z,8.10
2023-01-21T20:19:09.919Z,7.80
2023-01-21T20:22:17.390Z,7.20
2023-01-21T20:25:24.461Z,8.70
2023-01-21T20:28:31.212Z,8.60
2023-01-21T20:31:38.656Z,8.60
2023-01-21T20:34:45.934Z,10.20
2023-01-21T20:37:52.667Z,9.10
2023-01-21T20:41:00.125Z,9.10
2023-01-21T20:44:07.255Z,9.80
2023-01-21T20:47:14.600Z,9.80
2023-01-21T20:50:21.886Z,10.50
2023-01-21T20:53:29.145Z,11.70
2023-01-21T20:56:36.262Z,11.40
2023-01-21T20:59:43.664Z,10.50
2023-01-21T21:02:50.815Z,11.10
2023-01-21T21:05:58.004Z,10.80
2023-01-21T21:09:05.061Z,11.80
2023-01-21T21:12:12.561Z,10.90
2023-01-21T21:15:20.135Z,10.60
2023-01-21T21:18:27.038Z,10.50
2023-01-21T21:21:34.568Z,11.30
2023-01-21T21:24:41.514Z,10.10
2023-01-21T21:27:48.625Z,10.90
2023-01-21T21:30:55.976Z,10.70
2023-01-21T21:34:03.288Z,11.00
2023-01-21T21:37:10.564Z,10.10
2023-01-21T21:40:17.705Z,10.70
2023-01-21T21:43:24.343Z,11.40
2023-01-21T21:46:31.914Z,11.30
2023-01-21T21:49:39.133Z,10.80
2023-01-21T21:52:45.811Z,11.20
2023-01-21T21:55:53.237Z,11.40
2023-01-21T21:59:00.256Z,9.90
2023-01-21T22:02:07.258Z,10.90
2023-01-21T22:05:14.586Z,10.30
2023-01-21T22:08:21.267Z,10.20
2023-01-21T22:11:28.263Z,10.70
2023-01-21T22:14:35.323Z,9.90
2023-01-21T22:17:42.175Z,11.00
2023-01-21T22:20:49.376Z,10.70
2023-01-21T22:23:56.590Z,9.90
2023-01-21T22:27:04.142Z,9.90
2023-01-21T22:30:11.263Z,9.90
2023-01-21T22:33:18.264Z,10.70
2023-01-21T22:36:25.777Z,9.90
2023-01-21T22:39:32.397Z,10.40
2023-01-21T22:42:39.233Z,17.40
2023-01-21T22:45:46.750Z,10.70
2023-01-21T22:48:53.379Z,10.80
2023-01-21T22:52:00.548Z,11.50
2023-01-21T22:55:07.573Z,9.50
2023-01-21T22:58:14.114Z,10.90
2023-01-21T23:01:21.387Z,11.30
2023-01-21T23:04:28.502Z,10.60
2023-01-21T23:07:35.108Z,10.70
2023-01-21T23:10:42.470Z,10.10
2023-01-21T23:13:50.029Z,10.70
2023-01-21T23:16:56.938Z,10.60
2023-01-21T23:20:03.918Z,10.30
2023-01-21T23:23:10.891Z,10.40
2023-01-21T23:26:18.226Z,10.60
2023-01-21T23:29:24.911Z,9.10
2023-01-21T23:32:32.088Z,9.80
2023-01-21T23:35:39.060Z,8.80
2023-01-21T23:38:45.599Z,8.70
2023-01-21T23:41:53.071Z,9.10
2023-01-21T23:45:00.253Z,9.60
2023-01-21T23:48:06.842Z,9.00
2023-01-21T23:51:13.999Z,8.90
2023-01-21T23:54:21.398Z,9.60
2023-01-21T23:57:28.045Z,9.80
